Durango, CO (81301)

7:40 AM MDT on May 05, 2015 (GMT -0600)
Falls Creek Ranch | | Change Station
CLOSE
Current Station
Personal Weather Station
Location: Durango, CO
Elevation: 7560 ft
Nearby Weather Stations

Elev 7560 ft 37.29 °N, 107.87 °W | Updated 59 seconds ago

Rain
Rain
42.4 °F
Feels Like 42 °F
N
0.0
Wind Variable Wind from SSW
Gusts 2.0 mph

Today
High -- | Low -- °F
--% Chance of Precip.
Yesterday
High -- | Low -- °F
Precip. -- in
6:12 AM 8:04 PM
Full, 98% visible
Pressure 29.94 in
Visibility 7.0 miles
Clouds Scattered Clouds 300 ft
Scattered Clouds 2800 ft
Overcast 3800 ft
Windchill 42 °F
Dew Point 41 °F
Humidity 95%
Rainfall 0.05 in
Snow Depth Not available.
UV 0 out of 12
Pollen .80 out of 12
Air Quality Not available.
Flu Activity Sporadic
SPECI KDRO 051300Z AUTO 00000KT 7SM -RA SCT003 SCT028 OVC038 07/07 A2994 RMK AO2 P0000 T00720072

More Conditions Fewer Conditions

Pressure 29.94 in
Visibility 7.0 miles
Clouds Scattered Clouds 300 ft
Scattered Clouds 2800 ft
Overcast 3800 ft
Windchill 42 °F
Dew Point 41 °F
Humidity 95%
Rainfall 0.05 in
Snow Depth Not available.
UV 0 out of 12
Pollen .80 out of 12
Air Quality Not available.
Flu Activity Sporadic
SPECI KDRO 051300Z AUTO 00000KT 7SM -RA SCT003 SCT028 OVC038 07/07 A2994 RMK AO2 P0000 T00720072

More Conditions Fewer Conditions

Nepal has a long way to go to dig out and rebuild from a devastating earthquake. We have teamed up with several charities and organizations to make contributing to the relief effort as easy as possible.
How you can help: Portlight Strategies | Red Cross

10-Day Weather Forecast

Almanac

Astronomy

May. 05, 2015 Rise Set
Actual Time
Civil Twilight
Nautical Twilight
Astronomical Twilight
Moon
Length of Visible Light
Length of Day
Tomorrow will be .
, % of the Moon is Illuminated

Today's Extremes

State Highs State Lows

Community

WunderPhotos

Upload Photos

1,818,889 photos uploaded!

WunderBlogs® & News

Nearby

Air Quality

  Air Quality AQ Index Pollutant
Not available.

Snow Depth

Station Depth Elevation

Earthquake Activity

City Distance Mag. Time & Date
Minimum magnitude displayed is 2.5.

Coastal Water Temperatures

Place Temperature

Stations

Nearby Weather Stations

Station Location Temp. Windchill Dew Point Humidity Wind Precip. Elev Updated Type